Time;durP1;ratioP1;P1;durP2;ratioP2;P2;SDS_P1;SDS_P2;PMS_P1;PMS_P2;Temp;Humidity;BMP_temperature;BMP_pressure;BME280_temperature;BME280_humidity;BME280_pressure;Samples;Min_cycle;Max_cycle;Signal;HPM_P1;HPM_P2
2022/09/15 00:01:04;;;;;;;;;;;;;;;22.83;56.30;100275.88;5131538;27;20365;-37
2022/09/15 00:03:30;;;;;;;;;;;;;;;22.83;56.22;100278.66;5138889;27;20319;-37
2022/09/15 00:05:56;;;;;;;;;;;;;;;22.82;56.31;100274.25;5137828;27;19980;-37
2022/09/15 00:08:21;;;;;;;;;;;;;;;22.83;56.29;100285.03;5134983;27;19931;-37
2022/09/15 00:10:49;;;;;;;;;;;;;;;22.82;56.12;100280.63;5136853;27;19931;-37
2022/09/15 00:13:14;;;;;;;;;;;;;;;22.81;56.36;100284.53;5121135;27;19966;-37
2022/09/15 00:15:40;;;;;;;;;;;;;;;22.82;56.38;100285.34;5136403;27;19923;-38
2022/09/15 00:18:06;;;;;;;;;;;;;;;22.82;56.27;100293.69;5139833;27;20314;-37
2022/09/15 00:20:31;;;;;;;;;;;;;;;22.82;56.23;100279.81;5138776;27;19924;-37
2022/09/15 00:22:57;;;;;;;;;;;;;;;22.82;56.13;100277.84;5140510;27;19972;-37
2022/09/15 00:25:22;;;;;;;;;;;;;;;22.81;56.34;100290.09;5133678;27;19938;-37
2022/09/15 00:27:48;;;;;;;;;;;;;;;22.82;56.21;100285.34;5133991;27;19923;-37
2022/09/15 00:30:14;;;;;;;;;;;;;;;22.81;56.13;100284.53;5142855;27;20277;-37
2022/09/15 00:32:39;;;;;;;;;;;;;;;22.79;56.40;100284.03;5140595;27;19923;-37
2022/09/15 00:35:05;;;;;;;;;;;;;;;22.81;56.28;100278.19;5138995;27;19924;-37
2022/09/15 00:37:30;;;;;;;;;;;;;;;22.79;56.23;100273.75;5135205;27;20023;-37
2022/09/15 00:39:56;;;;;;;;;;;;;;;22.81;56.24;100286.50;5143957;27;19980;-37
2022/09/15 00:42:21;;;;;;;;;;;;;;;22.81;56.33;100275.41;5138228;27;19935;-37
2022/09/15 00:47:25;;;;;;;;;;;;;;;22.79;56.31;100273.75;5183437;27;20014;-37
2022/09/15 00:49:53;;;;;;;;;;;;;;;22.81;56.20;100278.19;5168843;27;19962;-36
2022/09/15 00:52:26;;;;;;;;;;;;;;;22.79;56.22;100279.28;5169326;27;19988;-37
2022/09/15 00:54:54;;;;;;;;;;;;;;;22.80;56.24;100285.69;5150477;27;20014;-37
2022/09/15 00:57:22;;;;;;;;;;;;;;;22.80;56.22;100285.69;5164827;27;19954;-37
2022/09/15 00:59:47;;;;;;;;;;;;;;;22.79;56.17;100287.63;5169016;27;19966;-37
2022/09/15 01:02:18;;;;;;;;;;;;;;;22.79;56.15;100278.47;5149999;27;19923;-37
2022/09/15 01:04:44;;;;;;;;;;;;;;;22.79;56.12;100278.47;5148093;27;20046;-37
2022/09/15 01:07:11;;;;;;;;;;;;;;;22.78;56.11;100283.22;5165552;27;19922;-37
2022/09/15 01:09:38;;;;;;;;;;;;;;;22.79;56.05;100281.25;5169203;27;19970;-37
2022/09/15 01:12:04;;;;;;;;;;;;;;;22.79;55.93;100272.94;5150503;27;20419;-37
2022/09/15 01:14:29;;;;;;;;;;;;;;;22.80;56.14;100269.03;5149581;27;19930;-37
2022/09/15 01:16:58;;;;;;;;;;;;;;;22.79;56.09;100270.97;5166807;27;19926;-37
2022/09/15 01:19:44;;;;;;;;;;;;;;;22.78;56.09;100269.34;5163391;27;19959;-37
2022/09/15 01:22:29;;;;;;;;;;;;;;;22.79;56.05;100270.16;5151947;27;20061;-37
2022/09/15 01:25:15;;;;;;;;;;;;;;;22.80;55.99;100271.81;5152948;27;19995;-37
2022/09/15 01:28:00;;;;;;;;;;;;;;;22.78;56.01;100274.88;5151873;27;19974;-37
2022/09/15 01:30:26;;;;;;;;;;;;;;;22.78;56.01;100279.63;5153776;27;19992;-37
2022/09/15 01:33:05;;;;;;;;;;;;;;;22.79;56.02;100282.06;5168306;27;19923;-37
2022/09/15 01:35:35;;;;;;;;;;;;;;;22.78;56.01;100277.66;5167256;27;19981;-37
2022/09/15 01:38:03;;;;;;;;;;;;;;;22.78;55.99;100277.66;5166304;27;19974;-37
2022/09/15 01:40:30;;;;;;;;;;;;;;;22.78;55.97;100266.56;5147883;27;19996;-37
2022/09/15 01:42:56;;;;;;;;;;;;;;;22.77;55.91;100259.38;5167031;27;19923;-37
2022/09/15 01:45:23;;;;;;;;;;;;;;;22.78;55.93;100260.19;5136560;27;19930;-37
2022/09/15 01:47:49;;;;;;;;;;;;;;;22.78;56.01;100268.53;5152068;27;20288;-37
2022/09/15 01:50:17;;;;;;;;;;;;;;;22.77;56.05;100264.13;5155125;27;19927;-37
2022/09/15 01:52:44;;;;;;;;;;;;;;;22.77;55.87;100264.94;5131176;27;21163;-37
2022/09/15 01:55:12;;;;;;;;;;;;;;;22.78;55.83;100265.75;5155767;27;20071;-37
2022/09/15 01:57:37;;;;;;;;;;;;;;;22.77;55.93;100266.88;5153312;27;19966;-37
2022/09/15 02:00:04;;;;;;;;;;;;;;;22.76;55.86;100268.84;5137063;27;19930;-37
2022/09/15 02:02:32;;;;;;;;;;;;;;;22.77;55.77;100273.25;5138657;27;20003;-38
2022/09/15 02:04:58;;;;;;;;;;;;;;;22.76;55.78;100268.03;5136114;27;20325;-37
2022/09/15 02:07:46;;;;;;;;;;;;;;;22.75;55.92;100270.00;5144879;27;20418;-37
2022/09/15 02:12:58;;;;;;;;;;;;;;;22.76;55.88;100270.81;5170614;27;20449;-37
2022/09/15 02:15:27;;;;;;;;;;;;;;;22.76;55.86;100279.97;5166860;27;19973;-37
2022/09/15 02:17:54;;;;;;;;;;;;;;;22.74;55.92;100279.44;5167918;27;19962;-37
2022/09/15 02:20:22;;;;;;;;;;;;;;;22.75;55.87;100278.31;5164600;27;20425;-37
2022/09/15 02:22:52;;;;;;;;;;;;;;;22.75;55.81;100283.03;5165729;27;19962;-37
2022/09/15 02:25:20;;;;;;;;;;;;;;;22.75;55.69;100277.47;5163250;27;20665;-37
2022/09/15 02:27:46;;;;;;;;;;;;;;;22.75;55.92;100277.47;5149962;27;19988;-37
2022/09/15 02:30:13;;;;;;;;;;;;;;;22.74;55.86;100279.44;5166621;27;19981;-37
2022/09/15 02:32:40;;;;;;;;;;;;;;;22.76;55.83;100279.97;5167059;27;20011;-37
2022/09/15 02:35:06;;;;;;;;;;;;;;;22.76;55.81;100273.59;5168850;27;19959;-37
2022/09/15 02:37:32;;;;;;;;;;;;;;;22.75;55.86;100277.47;5168201;27;19923;-37
2022/09/15 02:39:57;;;;;;;;;;;;;;;22.75;55.80;100272.78;5168714;27;19942;-37
2022/09/15 02:42:24;;;;;;;;;;;;;;;22.75;55.80;100278.31;5168697;27;20369;-37
2022/09/15 02:44:49;;;;;;;;;;;;;;;22.75;55.68;100283.88;5168844;27;19930;-37
2022/09/15 02:47:15;;;;;;;;;;;;;;;22.76;55.72;100276.38;5148358;27;19975;-40
2022/09/15 02:49:40;;;;;;;;;;;;;;;22.76;55.67;100277.19;5163449;27;19935;-39
2022/09/15 02:52:06;;;;;;;;;;;;;;;22.75;55.77;100283.88;5168197;27;20276;-38
2022/09/15 02:54:32;;;;;;;;;;;;;;;22.74;55.77;100289.72;5167745;27;20008;-38
2022/09/15 02:56:59;;;;;;;;;;;;;;;22.73;55.88;100279.78;5167657;27;19923;-38
2022/09/15 02:59:24;;;;;;;;;;;;;;;22.75;55.81;100286.66;5169462;27;20034;-38
2022/09/15 03:01:50;;;;;;;;;;;;;;;22.74;55.62;100279.44;5168273;27;19927;-39
2022/09/15 03:04:16;;;;;;;;;;;;;;;22.74;55.78;100279.44;5168697;27;19928;-38
2022/09/15 03:06:42;;;;;;;;;;;;;;;22.74;55.61;100275.84;5164869;27;19927;-38
2022/09/15 03:09:08;;;;;;;;;;;;;;;22.74;55.72;100267.53;5169394;27;19978;-38
2022/09/15 03:11:33;;;;;;;;;;;;;;;22.73;55.70;100266.72;5167504;27;19923;-38
2022/09/15 03:14:00;;;;;;;;;;;;;;;22.74;55.71;100270.28;5166727;27;19938;-38
2022/09/15 03:16:26;;;;;;;;;;;;;;;22.73;55.69;100269.47;5166322;27;20010;-38
2022/09/15 03:18:54;;;;;;;;;;;;;;;22.74;55.70;100275.84;5169120;27;19923;-38
2022/09/15 03:21:20;;;;;;;;;;;;;;;22.74;55.77;100281.41;5164378;27;20001;-38
2022/09/15 03:23:46;;;;;;;;;;;;;;;22.73;55.69;100290.88;5137687;27;20018;-38
2022/09/15 03:26:11;;;;;;;;;;;;;;;22.73;55.67;100286.13;5153014;27;19930;-38
2022/09/15 03:28:37;;;;;;;;;;;;;;;22.74;55.67;100275.84;5152667;27;19923;-38
2022/09/15 03:31:03;;;;;;;;;;;;;;;22.72;55.65;100286.47;5152931;27;20255;-38
2022/09/15 03:33:29;;;;;;;;;;;;;;;22.73;55.46;100297.25;5154401;27;19923;-38
2022/09/15 03:35:54;;;;;;;;;;;;;;;22.73;55.61;100294.47;5153696;27;19931;-38
2022/09/15 03:38:20;;;;;;;;;;;;;;;22.73;55.61;100283.38;5152114;27;19927;-38
2022/09/15 03:41:06;;;;;;;;;;;;;;;22.72;55.59;100292.84;5154538;27;19924;-38
2022/09/15 03:43:32;;;;;;;;;;;;;;;22.72;55.61;100301.16;5138103;27;19962;-38
2022/09/15 03:45:57;;;;;;;;;;;;;;;22.73;55.67;100301.97;5137755;27;20383;-38
2022/09/15 03:48:23;;;;;;;;;;;;;;;22.73;55.63;100304.75;5138619;27;20392;-38
2022/09/15 03:50:49;;;;;;;;;;;;;;;22.72;55.58;100298.38;5152107;27;19973;-39
2022/09/15 03:53:15;;;;;;;;;;;;;;;22.72;55.75;100292.03;5154626;27;19938;-38
2022/09/15 03:55:40;;;;;;;;;;;;;;;22.72;55.47;100305.91;5151782;27;19927;-39
2022/09/15 03:58:06;;;;;;;;;;;;;;;22.71;55.63;100296.75;5153429;27;19931;-38
2022/09/15 04:00:32;;;;;;;;;;;;;;;22.71;55.59;100295.91;5151489;27;19978;-38
2022/09/15 04:02:58;;;;;;;;;;;;;;;22.72;55.61;100294.78;5154641;27;19923;-38
2022/09/15 04:05:24;;;;;;;;;;;;;;;22.71;55.51;100291.22;5152464;27;19923;-39
2022/09/15 04:07:49;;;;;;;;;;;;;;;22.70;55.58;100289.53;5134519;27;19924;-38
2022/09/15 04:10:15;;;;;;;;;;;;;;;22.71;55.62;100290.34;5154131;27;20281;-38
2022/09/15 04:12:40;;;;;;;;;;;;;;;22.71;55.50;100296.75;5134146;27;19939;-38
2022/09/15 04:15:06;;;;;;;;;;;;;;;22.72;55.57;100292.84;5154203;27;20345;-38
2022/09/15 04:17:32;;;;;;;;;;;;;;;22.71;55.42;100284.81;5152139;27;19923;-39
2022/09/15 04:19:57;;;;;;;;;;;;;;;22.71;55.60;100282.03;5152469;27;19931;-38
2022/09/15 04:22:23;;;;;;;;;;;;;;;22.71;55.43;100284.81;5151318;27;19931;-38
2022/09/15 04:24:48;;;;;;;;;;;;;;;22.72;55.40;100298.38;5154160;27;20264;-38
2022/09/15 04:27:14;;;;;;;;;;;;;;;22.69;55.53;100293.47;5152181;27;19931;-38
2022/09/15 04:29:41;;;;;;;;;;;;;;;22.69;55.44;100295.44;5152302;27;19997;-39
2022/09/15 04:32:06;;;;;;;;;;;;;;;22.68;55.65;100297.38;5151075;27;19989;-38
2022/09/15 04:34:32;;;;;;;;;;;;;;;22.68;55.62;100299.34;5150658;27;19927;-38
2022/09/15 04:36:57;;;;;;;;;;;;;;;22.68;55.51;100291.03;5153384;27;19930;-38
2022/09/15 04:39:24;;;;;;;;;;;;;;;22.66;54.92;100294.09;5152487;27;19923;-38
2022/09/15 04:41:49;;;;;;;;;;;;;;;22.66;54.78;100294.09;5151160;27;19931;-38
2022/09/15 04:44:15;;;;;;;;;;;;;;;22.66;54.68;100293.28;5151670;27;19975;-38
2022/09/15 04:46:40;;;;;;;;;;;;;;;22.65;54.44;100292.47;5151196;27;19997;-39
2022/09/15 04:49:06;;;;;;;;;;;;;;;22.66;54.26;100307.16;5153241;27;20381;-38
2022/09/15 04:51:32;;;;;;;;;;;;;;;22.66;54.07;100298.84;5153250;27;19927;-38
2022/09/15 04:53:57;;;;;;;;;;;;;;;22.67;54.20;100300.50;5152494;27;19930;-38
2022/09/15 04:56:24;;;;;;;;;;;;;;;22.67;54.30;100298.53;5146136;27;20580;-38
2022/09/15 04:58:51;;;;;;;;;;;;;;;22.67;54.26;100295.75;5147133;27;20021;-38
2022/09/15 05:01:18;;;;;;;;;;;;;;;22.66;54.05;100294.09;5143442;27;19969;-39
2022/09/15 05:03:45;;;;;;;;;;;;;;;22.66;53.83;100294.09;5133094;27;19923;-38
2022/09/15 05:06:11;;;;;;;;;;;;;;;22.65;53.57;100305.53;5128411;27;20006;-39
2022/09/15 05:08:37;;;;;;;;;;;;;;;22.64;53.86;100310.25;5147616;27;19923;-38
2022/09/15 05:11:04;;;;;;;;;;;;;;;22.65;53.44;100309.13;5146863;27;19987;-38
2022/09/15 05:13:29;;;;;;;;;;;;;;;22.65;53.44;100305.53;5132217;27;19958;-38
2022/09/15 05:15:55;;;;;;;;;;;;;;;22.64;53.34;100309.44;5147370;27;19935;-38
2022/09/15 05:18:21;;;;;;;;;;;;;;;22.65;53.39;100309.13;5143500;27;19927;-41
2022/09/15 05:20:46;;;;;;;;;;;;;;;22.67;53.55;100325.47;5125747;27;20300;-39
2022/09/15 05:23:12;;;;;;;;;;;;;;;22.67;53.43;100322.69;5149147;27;19931;-40
2022/09/15 05:25:37;;;;;;;;;;;;;;;22.66;53.26;100321.84;5143680;27;19939;-40
2022/09/15 05:28:03;;;;;;;;;;;;;;;22.67;53.49;100325.47;5150834;27;20319;-39
2022/09/15 05:30:29;;;;;;;;;;;;;;;22.69;53.29;100328.72;5148734;27;20017;-39
2022/09/15 05:33:04;;;;;;;;;;;;;;;22.65;53.11;100331.31;5145131;27;20362;-40
2022/09/15 05:35:29;;;;;;;;;;;;;;;22.66;53.04;100332.97;5150194;27;19923;-40
2022/09/15 05:37:55;;;;;;;;;;;;;;;22.66;52.93;100330.19;5141409;27;20389;-39
2022/09/15 05:40:21;;;;;;;;;;;;;;;22.67;52.85;100336.56;5132895;27;19932;-39
2022/09/15 05:42:47;;;;;;;;;;;;;;;22.67;53.03;100331.84;5140280;27;19923;-38
2022/09/15 05:45:12;;;;;;;;;;;;;;;22.68;52.95;100329.88;5132611;27;19931;-39
2022/09/15 05:47:38;;;;;;;;;;;;;;;22.40;51.81;100330.03;5128460;27;21457;-46
2022/09/15 05:50:04;;;;;;;;;;;;;;;22.36;52.53;100336.53;5128104;27;20327;-39
2022/09/15 05:52:29;;;;;;;;;;;;;;;22.53;51.83;100331.91;5134109;27;19991;-39
2022/09/15 05:54:55;;;;;;;;;;;;;;;22.62;51.82;100331.13;5139846;27;19930;-39
2022/09/15 05:57:24;;;;;;;;;;;;;;;22.63;51.97;100328.06;5138198;27;19935;-41
2022/09/15 05:59:50;;;;;;;;;;;;;;;22.65;52.32;100325.78;5141070;27;19930;-39
2022/09/15 06:02:15;;;;;;;;;;;;;;;22.66;52.15;100330.19;5140637;27;19927;-39
2022/09/15 06:04:41;;;;;;;;;;;;;;;22.65;52.31;100334.09;5136397;27;20380;-38
2022/09/15 06:07:06;;;;;;;;;;;;;;;22.64;52.07;100339.97;5133685;27;19923;-40
2022/09/15 06:09:33;;;;;;;;;;;;;;;22.61;51.90;100343.38;5142620;27;19932;-38
2022/09/15 06:11:59;;;;;;;;;;;;;;;22.62;52.19;100348.59;5144198;27;20253;-39
2022/09/15 06:14:24;;;;;;;;;;;;;;;22.62;51.59;100350.56;5149429;27;20400;-39
2022/09/15 06:16:50;;;;;;;;;;;;;;;22.62;51.60;100342.25;5127358;27;19967;-39
2022/09/15 06:19:15;;;;;;;;;;;;;;;22.62;51.73;100347.78;5144085;27;19927;-39
2022/09/15 06:21:41;;;;;;;;;;;;;;;22.60;51.49;100350.06;5146459;27;19931;-39
2022/09/15 06:24:06;;;;;;;;;;;;;;;22.61;51.71;100346.16;5143986;27;19935;-39
2022/09/15 06:26:32;;;;;;;;;;;;;;;22.63;51.93;100344.72;5139379;27;19962;-39
2022/09/15 06:28:59;;;;;;;;;;;;;;;22.64;52.21;100351.91;5133903;27;19923;-39
2022/09/15 06:31:25;;;;;;;;;;;;;;;22.65;51.90;100352.72;5137641;27;20034;-39
2022/09/15 06:33:52;;;;;;;;;;;;;;;22.65;52.29;100352.72;5137030;27;20030;-38
2022/09/15 06:36:19;;;;;;;;;;;;;;;22.64;52.16;100360.22;5121652;27;19927;-38
2022/09/15 06:38:44;;;;;;;;;;;;;;;22.67;51.98;100353.22;5138228;27;20084;-38
2022/09/15 06:41:10;;;;;;;;;;;;;;;22.61;51.91;100351.72;5137576;27;19927;-40
2022/09/15 06:43:36;;;;;;;;;;;;;;;22.63;51.76;100347.50;5132959;27;19923;-41
2022/09/15 06:46:06;;;;;;;;;;;;;;;22.67;52.01;100364.34;5130477;27;20506;-39
2022/09/15 06:48:32;;;;;;;;;;;;;;;22.68;52.32;100360.41;5130288;27;20450;-41
2022/09/15 06:50:58;;;;;;;;;;;;;;;22.69;52.36;100364.81;5136015;27;20006;-38
2022/09/15 06:53:23;;;;;;;;;;;;;;;22.68;52.53;100368.75;5131644;27;19923;-40
2022/09/15 06:55:49;;;;;;;;;;;;;;;22.68;52.45;100364.00;5124294;27;21802;-38
2022/09/15 06:58:14;;;;;;;;;;;;;;;22.69;52.67;100370.38;5127037;27;19923;-40
2022/09/15 07:00:40;;;;;;;;;;;;;;;22.69;52.61;100373.16;5123886;27;19941;-39
2022/09/15 07:03:06;;;;;;;;;;;;;;;22.68;52.79;100365.97;5133369;27;19931;-40
2022/09/15 07:05:31;;;;;;;;;;;;;;;22.70;52.67;100372.00;5130883;27;19975;-42
2022/09/15 07:07:57;;;;;;;;;;;;;;;22.69;52.50;100375.91;5132730;27;19931;-38
2022/09/15 07:10:23;;;;;;;;;;;;;;;22.68;52.51;100380.66;5126920;27;19978;-40
2022/09/15 07:12:48;;;;;;;;;;;;;;;22.67;52.63;100376.25;5128792;27;19927;-41
2022/09/15 07:15:14;;;;;;;;;;;;;;;22.65;52.36;100375.72;5131644;27;19927;-38
2022/09/15 07:17:39;;;;;;;;;;;;;;;22.66;52.56;100390.44;5137180;27;19927;-41
2022/09/15 07:20:05;;;;;;;;;;;;;;;22.64;52.47;100387.16;5114979;27;19942;-40
2022/09/15 07:22:31;;;;;;;;;;;;;;;22.64;52.35;100381.63;5132437;27;20282;-38
2022/09/15 07:24:56;;;;;;;;;;;;;;;22.65;52.56;100384.06;5130305;27;19927;-41
2022/09/15 07:27:25;;;;;;;;;;;;;;;22.63;52.44;100397.44;5136520;27;20407;-39
2022/09/15 07:29:51;;;;;;;;;;;;;;;22.67;52.68;100398.47;5136780;27;20056;-38
2022/09/15 07:32:16;;;;;;;;;;;;;;;22.67;52.44;100394.88;5132134;27;19939;-40
2022/09/15 07:34:42;;;;;;;;;;;;;;;22.66;52.63;100391.25;5133569;27;20285;-38
2022/09/15 07:37:07;;;;;;;;;;;;;;;22.66;52.77;100407.06;5132820;27;20315;-40
2022/09/15 07:39:33;;;;;;;;;;;;;;;22.68;52.62;100413.16;5136094;27;19931;-39
2022/09/15 07:41:58;;;;;;;;;;;;;;;22.68;52.75;100418.69;5135849;27;19923;-40
2022/09/15 07:44:24;;;;;;;;;;;;;;;22.67;52.69;100434.53;5132805;27;19934;-38
2022/09/15 07:46:49;;;;;;;;;;;;;;;22.66;52.60;100432.88;5139613;27;19938;-40
2022/09/15 07:49:15;;;;;;;;;;;;;;;22.68;52.92;100429.81;5135408;27;19927;-39
2022/09/15 07:51:41;;;;;;;;;;;;;;;22.68;52.76;100432.59;5141160;27;19927;-40
2022/09/15 07:54:07;;;;;;;;;;;;;;;22.69;52.78;100423.94;5135926;27;19932;-39
2022/09/15 07:56:32;;;;;;;;;;;;;;;22.68;52.75;100433.41;5128931;27;19938;-39
2022/09/15 07:58:58;;;;;;;;;;;;;;;22.59;52.08;100431.72;5132459;27;19932;-37
2022/09/15 08:01:24;;;;;;;;;;;;;;;22.66;52.64;100438.44;5131456;27;19931;-40
2022/09/15 08:03:50;;;;;;;;;;;;;;;22.70;52.47;100435.84;5134523;27;19963;-39
2022/09/15 08:06:17;;;;;;;;;;;;;;;22.72;52.64;100434.41;5115368;27;20013;-40
2022/09/15 08:08:42;;;;;;;;;;;;;;;22.70;52.86;100439.44;5112488;27;20009;-42
2022/09/15 08:11:09;;;;;;;;;;;;;;;22.71;52.78;100440.25;5134466;27;19929;-40
2022/09/15 08:13:34;;;;;;;;;;;;;;;22.74;52.87;100442.41;5110581;27;19946;-42
2022/09/15 08:16:04;;;;;;;;;;;;;;;22.74;52.96;100442.41;5133589;27;20269;-41
2022/09/15 08:18:29;;;;;;;;;;;;;;;22.72;53.02;100444.69;5135898;27;19927;-41
2022/09/15 08:20:55;;;;;;;;;;;;;;;22.72;53.13;100441.91;5136369;27;19976;-40
2022/09/15 08:23:21;;;;;;;;;;;;;;;22.70;53.18;100449.72;5133881;27;20146;-40
2022/09/15 08:25:50;;;;;;;;;;;;;;;22.73;53.33;100461.03;5130883;27;19938;-41
2022/09/15 08:28:16;;;;;;;;;;;;;;;22.73;53.28;100458.25;5135949;27;20354;-39
2022/09/15 08:30:41;;;;;;;;;;;;;;;22.72;53.16;100456.59;5131752;27;19931;-40
2022/09/15 08:33:07;;;;;;;;;;;;;;;22.73;53.14;100468.53;5132494;27;19942;-38
2022/09/15 08:35:33;;;;;;;;;;;;;;;22.73;53.22;100463.78;5137491;27;20266;-39
2022/09/15 08:37:58;;;;;;;;;;;;;;;22.74;53.06;100464.59;5135575;27;20030;-40
2022/09/15 08:40:26;;;;;;;;;;;;;;;22.72;53.08;100467.72;5129471;27;20417;-40
2022/09/15 08:42:52;;;;;;;;;;;;;;;22.74;53.06;100472.94;5121385;27;19931;-40
2022/09/15 08:45:22;;;;;;;;;;;;;;;22.73;53.04;100482.41;5128745;27;19935;-42
2022/09/15 08:47:48;;;;;;;;;;;;;;;22.72;52.92;100478.81;5125019;27;19976;-39
2022/09/15 08:50:19;;;;;;;;;;;;;;;22.72;52.99;100478.81;5134061;27;19927;-40
2022/09/15 08:52:48;;;;;;;;;;;;;;;22.70;52.71;100483.84;5139742;27;20014;-39
2022/09/15 08:55:25;;;;;;;;;;;;;;;22.71;52.85;100484.66;5111730;27;19927;-39
2022/09/15 08:57:51;;;;;;;;;;;;;;;22.69;52.75;100496.09;5127831;27;19923;-40
2022/09/15 09:00:17;;;;;;;;;;;;;;;22.73;52.85;100485.19;5128111;27;19926;-41
2022/09/15 09:02:45;;;;;;;;;;;;;;;22.72;52.80;100484.38;5130116;27;19938;-41
2022/09/15 09:05:31;;;;;;;;;;;;;;;22.73;52.64;100496.28;5130716;27;20444;-42
2022/09/15 09:08:08;;;;;;;;;;;;;;;22.73;52.68;100487.97;5112957;27;20282;-42
2022/09/15 09:10:37;;;;;;;;;;;;;;;22.79;52.69;100490.28;5132632;27;20003;-41
2022/09/15 09:13:09;;;;;;;;;;;;;;;22.28;52.80;100491.53;5133058;27;20105;-40
2022/09/15 09:15:35;;;;;;;;;;;;;;;;;;5129254;27;20416;-49
2022/09/15 09:21:01;;;;;;;;;;;;;;;22.62;52.55;100487.38;5147591;27;20014;-37
2022/09/15 09:23:27;;;;;;;;;;;;;;;22.67;52.38;100494.78;5126507;27;20262;-37
2022/09/15 09:25:54;;;;;;;;;;;;;;;22.70;52.18;100485.81;5133610;27;24008;-41
2022/09/15 09:28:28;;;;;;;;;;;;;;;22.71;52.02;100493.84;5133119;27;20486;-40
2022/09/15 09:30:55;;;;;;;;;;;;;;;22.72;52.27;100486.31;5118532;27;20022;-43
2022/09/15 09:33:25;;;;;;;;;;;;;;;22.70;52.11;100492.19;5124895;27;19930;-42
2022/09/15 09:35:51;;;;;;;;;;;;;;;22.73;52.08;100494.31;5133918;27;20250;-42
2022/09/15 09:38:20;;;;;;;;;;;;;;;22.72;51.81;100497.44;5139461;27;19927;-41
2022/09/15 09:40:46;;;;;;;;;;;;;;;22.72;51.73;100503.81;5124628;27;19941;-40
2022/09/15 09:43:12;;;;;;;;;;;;;;;22.82;51.56;100490.81;5136227;27;20199;-42
2022/09/15 09:45:37;;;;;;;;;;;;;;;22.79;51.69;100498.59;5123737;27;19923;-41
2022/09/15 09:48:19;;;;;;;;;;;;;;;22.66;51.00;100496.72;5126219;27;20449;-38
2022/09/15 09:50:44;;;;;;;;;;;;;;;22.74;51.00;100507.06;5108884;27;19942;-38
2022/09/15 09:53:20;;;;;;;;;;;;;;;22.46;50.37;100500.00;5113184;27;19927;-37
2022/09/15 09:55:46;;;;;;;;;;;;;;;22.69;50.35;100500.81;5123168;27;20011;-40
2022/09/15 09:58:14;;;;;;;;;;;;;;;22.71;50.12;100493.00;5125621;27;20337;-38
2022/09/15 10:00:40;;;;;;;;;;;;;;;22.53;50.16;100490.09;5110738;27;20400;-41
2022/09/15 10:03:10;;;;;;;;;;;;;;;22.69;49.86;100498.06;5129104;27;19968;-42
2022/09/15 10:05:36;;;;;;;;;;;;;;;22.74;49.80;100489.59;5126697;27;20058;-41
2022/09/15 10:08:01;;;;;;;;;;;;;;;22.75;50.15;100494.00;5129660;27;19950;-40
2022/09/15 10:10:31;;;;;;;;;;;;;;;22.74;50.34;100495.97;5108317;27;19931;-40
2022/09/15 10:12:56;;;;;;;;;;;;;;;22.74;50.52;100490.41;5127858;27;20027;-38
2022/09/15 10:15:23;;;;;;;;;;;;;;;22.73;50.41;100494.31;5129527;27;19927;-40
2022/09/15 10:17:48;;;;;;;;;;;;;;;22.63;50.03;100493.78;5129274;27;20504;-44
2022/09/15 10:20:24;;;;;;;;;;;;;;;22.69;49.89;100493.31;5113227;27;19990;-39
2022/09/15 10:22:50;;;;;;;;;;;;;;;22.70;50.01;100483.84;5129102;27;20014;-39
2022/09/15 10:28:16;;;;;;;;;;;;;;;22.74;50.20;100482.09;5169967;27;19945;-37
2022/09/15 10:30:58;;;;;;;;;;;;;;;22.75;50.46;100486.53;5132489;27;20017;-37
2022/09/15 10:33:24;;;;;;;;;;;;;;;22.75;50.38;100485.69;5128478;27;20151;-36
2022/09/15 10:35:50;;;;;;;;;;;;;;;22.75;50.49;100480.13;5146111;27;20022;-37
2022/09/15 10:38:16;;;;;;;;;;;;;;;22.83;50.34;100481.31;5124939;27;19930;-37
2022/09/15 10:40:47;;;;;;;;;;;;;;;22.81;50.72;100478.88;5145863;27;20002;-37
2022/09/15 10:43:18;;;;;;;;;;;;;;;22.80;50.63;100480.03;5119099;27;20038;-37
2022/09/15 10:45:45;;;;;;;;;;;;;;;22.82;50.76;100480.50;5143004;27;20088;-41
2022/09/15 10:51:14;;;;;;;;;;;;;;;22.81;50.54;100478.06;5149358;27;19938;-37
2022/09/15 10:53:43;;;;;;;;;;;;;;;22.79;50.53;100486.69;5152201;27;19982;-37
2022/09/15 10:56:26;;;;;;;;;;;;;;;22.82;50.88;100474.97;5146525;27;20404;-37
2022/09/15 10:59:11;;;;;;;;;;;;;;;22.79;50.59;100465.28;5132715;27;20005;-39
2022/09/15 11:01:58;;;;;;;;;;;;;;;22.78;50.65;100463.66;5134637;27;20337;-39
2022/09/15 11:04:44;;;;;;;;;;;;;;;22.79;50.71;100470.03;5139927;27;19938;-38
2022/09/15 11:07:29;;;;;;;;;;;;;;;22.82;51.10;100482.47;5131857;27;20444;-38
2022/09/15 11:09:57;;;;;;;;;;;;;;;22.81;50.71;100486.38;5134338;27;20014;-37
2022/09/15 11:12:42;;;;;;;;;;;;;;;22.80;50.69;100491.13;5151829;27;20386;-38
2022/09/15 11:15:15;;;;;;;;;;;;;;;22.84;50.69;100497.69;5142375;27;19934;-40
2022/09/15 11:17:59;;;;;;;;;;;;;;;22.84;50.61;100499.63;5149786;27;20021;-38
2022/09/15 11:20:44;;;;;;;;;;;;;;;22.87;50.99;100502.59;5149242;27;20357;-39
2022/09/15 11:23:18;;;;;;;;;;;;;;;22.84;50.50;100491.28;5139034;27;20083;-37
2022/09/15 11:25:45;;;;;;;;;;;;;;;22.63;49.29;100489.03;5145744;27;20010;-38
2022/09/15 11:28:13;;;;;;;;;;;;;;;22.77;49.23;100488.97;5146380;27;20753;-37
2022/09/15 11:30:43;;;;;;;;;;;;;;;22.81;49.54;100497.50;5147523;27;20992;-37
2022/09/15 11:33:16;;;;;;;;;;;;;;;22.82;49.84;100491.63;5144526;27;19968;-41
2022/09/15 11:35:46;;;;;;;;;;;;;;;22.85;50.02;100499.31;5138312;27;20536;-38
2022/09/15 11:38:20;;;;;;;;;;;;;;;22.90;49.89;100503.94;5153834;27;20034;-41
2022/09/15 11:40:47;;;;;;;;;;;;;;;22.91;50.11;100498.06;5131613;27;21025;-41
2022/09/15 11:43:15;;;;;;;;;;;;;;;22.94;50.64;100499.41;5150273;27;20018;-39
2022/09/15 11:45:43;;;;;;;;;;;;;;;22.90;50.51;100496.44;5130564;27;20017;-40
2022/09/15 11:48:28;;;;;;;;;;;;;;;22.89;50.21;100489.22;5133320;27;20412;-39
2022/09/15 11:50:54;;;;;;;;;;;;;;;22.89;50.43;100480.91;5122750;27;20018;-41
2022/09/15 11:53:37;;;;;;;;;;;;;;;22.90;50.05;100490.88;5117943;27;19927;-43
2022/09/15 11:56:07;;;;;;;;;;;;;;;22.91;50.47;100500.03;5110396;27;20433;-42
2022/09/15 11:58:37;;;;;;;;;;;;;;;22.94;50.29;100502.19;5128485;27;19978;-41
2022/09/15 12:01:13;;;;;;;;;;;;;;;22.91;49.74;100502.81;5125207;27;20022;-40
2022/09/15 12:03:44;;;;;;;;;;;;;;;22.83;49.93;100498.81;5124412;27;20010;-39
2022/09/15 12:06:13;;;;;;;;;;;;;;;22.83;49.78;100496.03;5121893;27;20061;-40
2022/09/15 12:08:40;;;;;;;;;;;;;;;22.83;49.86;100506.31;5121111;27;20364;-39
2022/09/15 12:11:06;;;;;;;;;;;;;;;22.85;49.93;100506.84;5124651;27;19927;-39
2022/09/15 12:13:32;;;;;;;;;;;;;;;22.83;49.80;100497.97;5127637;27;20013;-40
2022/09/15 12:15:59;;;;;;;;;;;;;;;22.83;49.56;100501.56;5115833;27;20266;-40
2022/09/15 12:18:26;;;;;;;;;;;;;;;22.83;49.51;100503.53;5103411;27;19924;-39
2022/09/15 12:21:11;;;;;;;;;;;;;;;22.81;49.20;100503.03;5124242;27;20596;-40
2022/09/15 12:23:39;;;;;;;;;;;;;;;22.78;49.21;100505.31;5102302;27;19932;-39
2022/09/15 12:26:13;;;;;;;;;;;;;;;22.81;49.56;100512.19;5113825;27;20445;-39
2022/09/15 12:31:24;;;;;;;;;;;;;;;22.85;49.59;100513.19;5148748;27;20361;-39
2022/09/15 12:33:56;;;;;;;;;;;;;;;22.88;50.11;100514.50;5129446;27;20451;-39
2022/09/15 12:36:38;;;;;;;;;;;;;;;22.88;50.28;100511.72;5145860;27;20029;-37
2022/09/15 12:39:14;;;;;;;;;;;;;;;22.88;50.08;100522.84;5158230;27;20110;-40
2022/09/15 12:41:45;;;;;;;;;;;;;;;22.87;50.40;100524.78;5159507;27;20050;-37
2022/09/15 12:44:13;;;;;;;;;;;;;;;22.91;50.29;100533.34;5158574;27;20648;-37
2022/09/15 12:46:39;;;;;;;;;;;;;;;22.91;50.56;100525.84;5149321;27;20010;-37
2022/09/15 12:49:05;;;;;;;;;;;;;;;22.91;49.97;100534.16;5153174;27;19953;-37
2022/09/15 12:51:31;;;;;;;;;;;;;;;22.91;50.43;100534.16;5154244;27;19931;-39
2022/09/15 12:53:59;;;;;;;;;;;;;;;22.88;49.95;100537.53;5156570;27;20021;-37
2022/09/15 12:56:25;;;;;;;;;;;;;;;22.90;50.12;100540.88;5140228;27;20025;-38
2022/09/15 12:58:51;;;;;;;;;;;;;;;22.88;50.25;100545.88;5156442;27;20046;-37